Low Head, Tasmania

7:51 PM AEST on July 31, 2016 (GMT +1000)
George Town Central | | Change Station

Elev 23 ft 41.10 °S, 146.82 °E | Updated 18 seconds ago

Clear
Clear
52.3 °F
Feels Like 52.3 °F
N
4.9
Wind Variable Wind from West
Gusts 4.9 mph

Today
High -- | Low -- °F
--% Chance of Precip.
Yesterday
High -- | Low -- °F
Precip. -- in
Pressure 29.89 in
Visibility 6.2 miles
Clouds
Dew Point 45 °F
Humidity 77%
Rainfall 0.04 in
Snow Depth Not available.
7:21 AM 5:17 PM
Waning Crescent, 7% visible
METAR YMLT 310930Z AUTO 35010KT 9999 // NCD 06/03 Q1012
Pressure 29.89 in
Visibility 6.2 miles
Clouds
Dew Point 45 °F
Humidity 77%
Rainfall 0.04 in
Snow Depth Not available.
7:21 AM 5:17 PM
Waning Crescent, 7% visible
METAR YMLT 310930Z AUTO 35010KT 9999 // NCD 06/03 Q1012

10-Day Weather Forecast

Almanac

Astronomy

Jul. 31, 2016 Rise Set
Actual Time
Civil Twilight
Nautical Twilight
Astronomical Twilight
Moon
Length of Visible Light
Length of Day
Tomorrow will be .
, % of the Moon is Illuminated

Today's Extremes

Country Highs Country Lows

Community

WunderPhotos

Upload Photos

1,928,776 photos uploaded!

WunderBlog® & News

Nearby

Air Quality

  Air Quality AQ Index Pollutant
Not available.

Snow Depth

Station Depth Elevation

Earthquake Activity

City Distance Mag. Time & Date
Minimum magnitude displayed is 2.5.

Coastal Water Temperatures

Place Temperature

Stations

Nearby Weather Stations

Station Location Temp. Windchill Dew Point Humidity Wind Precip. Elev Updated Type